Skagway, AK

7:15 PM AKST on February 09, 2016 (GMT -0900)
Skagway | | Change Station
CLOSE
Current Station
Airport
Location: Skagway,
Elevation: 16 ft
Nearby Weather Stations

Elev 16 ft 59.46 °N, 135.32 °W | Updated 22 minutes ago

Mostly Cloudy
Mostly Cloudy
44 °F
Feels Like 39 °F
N
10
Wind Variable Wind from NNE
Gusts 20 mph

Today
High -- | Low -- °F
--% Chance of Precip.
Yesterday
High -- | Low -- °F
Precip. -- in
Pressure 29.97 in
Visibility 10.0 miles
Clouds Mostly Cloudy 11000 ft
Windchill 39 °F
Dew Point 24 °F
Humidity 45%
Rainfall 0.00 in
Snow Depth Not available.
7:53 AM 4:38 PM
Waxing Crescent, 3% visible
METAR PAGY 100353Z AUTO 03009G17KT 10SM BKN110 07/M04 A2997 RMK AO2 SLP148 T00671044 TSNO
Pressure 29.97 in
Visibility 10.0 miles
Clouds Mostly Cloudy 11000 ft
Windchill 39 °F
Dew Point 24 °F
Humidity 45%
Rainfall 0.00 in
Snow Depth Not available.
7:53 AM 4:38 PM
Waxing Crescent, 3% visible
METAR PAGY 100353Z AUTO 03009G17KT 10SM BKN110 07/M04 A2997 RMK AO2 SLP148 T00671044 TSNO

10-Day Weather Forecast

Almanac

Astronomy

Feb. 09, 2016 Rise Set
Actual Time
Civil Twilight
Nautical Twilight
Astronomical Twilight
Moon
Length of Visible Light
Length of Day
Tomorrow will be .
, % of the Moon is Illuminated

Today's Extremes

State Highs State Lows

Community

WunderPhotos

Upload Photos

1,891,796 photos uploaded!

WunderBlog® & News

Nearby

Air Quality

  Air Quality AQ Index Pollutant
Not available.

Snow Depth

Station Depth Elevation

Earthquake Activity

City Distance Mag. Time & Date
Minimum magnitude displayed is 2.5.

Coastal Water Temperatures

Place Temperature

Stations

Nearby Weather Stations

Station Location Temp. Windchill Dew Point Humidity Wind Precip. Elev Updated Type
                   

Watches & Warnings

There are currently no watches in effect.